LOWW/VIE METAR and TAF weather

Enter ICAO airport designator
Station Type Date Time Source
LOWW METAR 2019/02/21 15:50 UTC NOAA

LOWW 211550Z 28013KT CAVOK 12/01 Q1025 NOSIG


Station Type Date Time Source
LOWW Decoded METAR 2019/02/21 15:50 UTC NOAA

Wien / Schwechat-Flughafen, Austria (LOWW) 48-07N 016-34E 190M
Feb 21, 2019 - 10:50 AM EST / 2019.02.21 1550 UTC
Wind: from the W (280 degrees) at 15 MPH (13 KT):0
Visibility: greater than 7 mile(s):0
Temperature: 53 F (12 C)
Dew Point: 33 F (1 C)
Relative Humidity: 46%
Pressure (altimeter): 30.27 in. Hg (1025 hPa)
ob: LOWW 211550Z 28013KT CAVOK 12/01 Q1025 NOSIG
cycle: 16

Station Type Date Time Source
LOWW TAF 2019/02/21 15:21 UTC NOAA

TAF LOWW 211415Z 2115/2221 30012KT 9999 FEW040 SCT070 TX12/2115Z TNM00/2221Z
BECMG 2118/2120 9999 BKN040
TEMPO 2119/2204 32015KT 5000 -RA FEW020 BKN030
TEMPO 2204/2212 32017G27KT 7000 SHRA BKN020
BECMG 2212/2214 36020G30KT FEW030


Example: see airport list